createdAt,value
2018-06-23T00:00:24.837Z,98212.08
2018-06-23T00:02:53.384Z,98206.81
2018-06-23T00:05:22.020Z,98204.02
2018-06-23T00:07:50.796Z,98200.55
2018-06-23T00:10:19.595Z,98201.03
2018-06-23T00:12:48.256Z,98210.84
2018-06-23T00:15:16.968Z,98206.84
2018-06-23T00:17:45.567Z,98201.80
2018-06-23T00:20:14.371Z,98207.70
2018-06-23T00:22:43.176Z,98205.47
2018-06-23T00:25:16.399Z,98207.26
2018-06-23T00:27:45.052Z,98210.16
2018-06-23T00:30:13.732Z,98206.66
2018-06-23T00:32:42.563Z,98208.45
2018-06-23T00:35:11.319Z,98205.98
2018-06-23T00:37:39.976Z,98201.42
2018-06-23T00:40:08.673Z,98203.41
2018-06-23T00:42:37.637Z,98212.36
2018-06-23T00:45:06.452Z,98206.84
2018-06-23T00:47:35.149Z,98205.47
2018-06-23T00:50:04.127Z,98202.78
2018-06-23T00:52:32.843Z,98205.31
2018-06-23T00:55:01.469Z,98204.59
2018-06-23T00:57:30.227Z,98203.41
2018-06-23T00:59:58.995Z,98202.63
2018-06-23T01:02:27.886Z,98200.39
2018-06-23T01:04:56.530Z,98200.31
2018-06-23T01:07:25.191Z,98199.05
2018-06-23T01:09:54.180Z,98204.13
2018-06-23T01:12:22.880Z,98200.15
2018-06-23T01:14:52.011Z,98196.25
2018-06-23T01:17:20.647Z,98197.89
2018-06-23T01:19:49.460Z,98194.03
2018-06-23T01:22:18.235Z,98190.48
2018-06-23T01:24:46.884Z,98188.19
2018-06-23T01:27:15.648Z,98192.39
2018-06-23T01:29:44.357Z,98181.25
2018-06-23T01:32:13.038Z,98186.27
2018-06-23T01:34:41.831Z,98183.22
2018-06-23T01:37:10.515Z,98186.31
2018-06-23T01:39:39.323Z,98188.54
2018-06-23T01:42:08.126Z,98182.47
2018-06-23T01:44:36.699Z,98180.64
2018-06-23T01:47:05.628Z,98188.59
2018-06-23T01:49:34.212Z,98188.11
2018-06-23T01:52:02.934Z,98188.38
2018-06-23T01:54:31.556Z,98190.28
2018-06-23T01:57:00.148Z,98184.94
2018-06-23T01:59:28.805Z,98180.11
2018-06-23T02:01:57.371Z,98183.98
2018-06-23T02:04:26.256Z,98184.23
2018-06-23T02:06:54.995Z,98185.14
2018-06-23T02:09:23.687Z,98190.20
2018-06-23T02:11:52.434Z,98182.94
2018-06-23T02:14:26.352Z,98179.51
2018-06-23T02:17:00.045Z,98179.00
2018-06-23T02:19:33.956Z,98181.14
2018-06-23T02:22:07.746Z,98181.92
2018-06-23T02:24:41.695Z,98184.55
2018-06-23T02:27:15.873Z,98182.52
2018-06-23T02:29:49.773Z,98177.44
2018-06-23T02:32:23.712Z,98182.99
2018-06-23T02:34:57.528Z,98179.20
2018-06-23T02:37:26.584Z,98175.77
2018-06-23T02:39:55.413Z,98180.84
2018-06-23T02:42:24.011Z,98184.39
2018-06-23T02:44:52.695Z,98190.03
2018-06-23T02:47:21.385Z,98189.00
2018-06-23T02:49:50.107Z,98191.50
2018-06-23T02:52:18.903Z,98191.52
2018-06-23T02:54:47.576Z,98196.84
2018-06-23T02:57:16.212Z,98195.83
2018-06-23T02:59:45.067Z,98195.88
2018-06-23T03:02:13.815Z,98193.48
2018-06-23T03:04:42.439Z,98201.98
2018-06-23T03:07:11.147Z,98200.60
2018-06-23T03:09:39.736Z,98206.81
2018-06-23T03:12:08.789Z,98210.30
2018-06-23T03:14:37.490Z,98210.42
2018-06-23T03:17:10.760Z,98215.89
2018-06-23T03:19:39.468Z,98217.59
2018-06-23T03:22:08.079Z,98218.23
2018-06-23T03:24:36.942Z,98217.11
2018-06-23T03:27:05.691Z,98208.48
2018-06-23T03:29:34.292Z,98212.52
2018-06-23T03:32:03.114Z,98211.94
2018-06-23T03:34:31.993Z,98214.20
2018-06-23T03:37:00.692Z,98213.94
2018-06-23T03:39:29.363Z,98214.22
2018-06-23T03:41:58.049Z,98211.03
2018-06-23T03:44:26.672Z,98203.38
2018-06-23T03:46:55.697Z,98205.46
2018-06-23T03:49:24.512Z,98200.41
2018-06-23T03:51:53.371Z,98203.05
2018-06-23T03:54:22.179Z,98207.42
2018-06-23T03:56:50.886Z,98200.40
2018-06-23T03:59:19.673Z,98210.66
2018-06-23T04:01:48.320Z,98209.28
2018-06-23T04:04:17.041Z,98196.97
2018-06-23T04:06:45.931Z,98202.13
2018-06-23T04:09:14.636Z,98199.41
2018-06-23T04:11:43.251Z,98196.03
2018-06-23T04:14:11.796Z,98200.32
2018-06-23T04:16:40.493Z,98197.17
2018-06-23T04:19:09.285Z,98191.44
2018-06-23T04:21:37.946Z,98199.78
2018-06-23T04:24:06.603Z,98205.05
2018-06-23T04:26:35.527Z,98206.77
2018-06-23T04:29:04.140Z,98207.94
2018-06-23T04:31:32.881Z,98208.52
2018-06-23T04:34:01.753Z,98212.10
2018-06-23T04:36:30.432Z,98216.67
2018-06-23T04:38:59.049Z,98219.73
2018-06-23T04:41:27.875Z,98218.08
2018-06-23T04:43:56.935Z,98218.23
2018-06-23T04:46:25.619Z,98217.03
2018-06-23T04:48:54.256Z,98222.12
2018-06-23T04:51:23.328Z,98226.95
2018-06-23T04:53:52.156Z,98225.28
2018-06-23T04:56:20.830Z,98226.81
2018-06-23T04:58:49.583Z,98224.35
2018-06-23T05:01:18.287Z,98225.33
2018-06-23T05:03:47.136Z,98233.78
2018-06-23T05:06:15.796Z,98234.82
2018-06-23T05:08:44.805Z,98235.84
2018-06-23T05:11:13.697Z,98232.63
2018-06-23T05:13:42.592Z,98239.77
2018-06-23T05:16:11.287Z,98236.28
2018-06-23T05:18:39.887Z,98236.44
2018-06-23T05:21:08.515Z,98232.36
2018-06-23T05:23:37.179Z,98229.19
2018-06-23T05:26:06.014Z,98228.47
2018-06-23T05:28:34.563Z,98235.80
2018-06-23T05:31:03.129Z,98240.20
2018-06-23T05:33:31.733Z,98243.66
2018-06-23T05:36:00.343Z,98236.37
2018-06-23T05:38:28.987Z,98243.52
2018-06-23T05:40:57.694Z,98240.23
2018-06-23T05:43:26.495Z,98243.26
2018-06-23T05:45:55.185Z,98238.96
2018-06-23T05:48:23.743Z,98230.98
2018-06-23T05:50:52.524Z,98230.95
2018-06-23T05:53:21.289Z,98231.11
2018-06-23T05:55:50.017Z,98230.08
2018-06-23T05:58:18.911Z,98231.89
2018-06-23T06:00:47.642Z,98238.72
2018-06-23T06:03:16.164Z,98238.95
2018-06-23T06:05:44.759Z,98241.46
2018-06-23T06:08:13.522Z,98239.88
2018-06-23T06:10:42.120Z,98244.53
2018-06-23T06:13:10.788Z,98241.17
2018-06-23T06:15:39.368Z,98241.30
2018-06-23T06:18:08.677Z,98247.73
2018-06-23T06:20:37.251Z,98238.86
2018-06-23T06:23:06.972Z,98249.52
2018-06-23T06:25:36.369Z,98242.81
2018-06-23T06:28:06.399Z,98244.41
2018-06-23T06:30:35.010Z,98247.87
2018-06-23T06:33:03.919Z,98247.95
2018-06-23T06:35:32.566Z,98249.63
2018-06-23T06:38:01.227Z,98245.30
2018-06-23T06:40:29.969Z,98246.73
2018-06-23T06:42:58.603Z,98249.40
2018-06-23T06:45:27.193Z,98241.56
2018-06-23T06:47:56.799Z,98233.45
2018-06-23T06:50:25.428Z,98243.00
2018-06-23T06:52:54.087Z,98238.59
2018-06-23T06:55:22.723Z,98245.00
2018-06-23T06:57:51.390Z,98243.56
2018-06-23T07:00:20.096Z,98237.69
2018-06-23T07:02:48.651Z,98224.77
2018-06-23T07:05:17.318Z,98223.23
2018-06-23T07:07:45.929Z,98226.66
2018-06-23T07:10:15.135Z,98232.13
2018-06-23T07:12:43.768Z,98233.11
2018-06-23T07:15:16.956Z,98229.27
2018-06-23T07:17:45.976Z,98236.98
2018-06-23T07:20:15.238Z,98232.70
2018-06-23T07:22:44.573Z,98230.55
2018-06-23T07:25:13.380Z,98232.70
2018-06-23T07:27:42.337Z,98230.29
2018-06-23T07:30:11.171Z,98234.20
2018-06-23T07:32:39.786Z,98229.52
2018-06-23T07:35:08.425Z,98232.20
2018-06-23T07:37:37.083Z,98226.81
2018-06-23T07:40:05.748Z,98232.95
2018-06-23T07:42:34.439Z,98238.84
2018-06-23T07:45:03.043Z,98234.51
2018-06-23T07:47:31.764Z,98234.25
2018-06-23T07:50:00.408Z,98228.73
2018-06-23T07:52:28.963Z,98226.14
2018-06-23T07:54:57.635Z,98220.36
2018-06-23T07:57:26.304Z,98213.84
2018-06-23T07:59:54.939Z,98216.52
2018-06-23T08:02:23.524Z,98214.94
2018-06-23T08:04:52.096Z,98207.27
2018-06-23T08:07:20.774Z,98211.34
2018-06-23T08:09:49.668Z,98206.73
2018-06-23T08:12:18.383Z,98209.45
2018-06-23T08:14:47.124Z,98209.34
2018-06-23T08:17:16.044Z,98201.05
2018-06-23T08:19:44.765Z,98206.89
2018-06-23T08:22:13.408Z,98203.38
2018-06-23T08:24:42.024Z,98209.00
2018-06-23T08:27:10.764Z,98199.42
2018-06-23T08:29:39.321Z,98196.16
2018-06-23T08:32:08.108Z,98195.27
2018-06-23T08:34:36.699Z,98194.63
2018-06-23T08:37:05.840Z,98191.98
2018-06-23T08:39:34.428Z,98193.73
2018-06-23T08:42:02.992Z,98189.03
2018-06-23T08:44:31.609Z,98190.19
2018-06-23T08:47:00.304Z,98197.49
2018-06-23T08:49:28.927Z,98196.55
2018-06-23T08:51:57.568Z,98198.03
2018-06-23T08:54:26.548Z,98200.89
2018-06-23T08:56:55.348Z,98195.37
2018-06-23T08:59:24.000Z,98197.13
2018-06-23T09:01:52.709Z,98196.77
2018-06-23T09:04:21.228Z,98190.45
2018-06-23T09:06:50.869Z,98185.61
2018-06-23T09:09:19.582Z,98187.34
2018-06-23T09:11:48.206Z,98187.45
2018-06-23T09:14:16.888Z,98191.42
2018-06-23T09:16:45.528Z,98185.77
2018-06-23T09:19:14.103Z,98193.86
2018-06-23T09:21:42.770Z,98188.75
2018-06-23T09:24:11.376Z,98184.44
2018-06-23T09:26:39.936Z,98186.69
2018-06-23T09:29:08.502Z,98190.23
2018-06-23T09:31:39.582Z,98196.27
2018-06-23T09:34:08.506Z,98198.19
2018-06-23T09:36:37.148Z,98197.61
2018-06-23T09:39:08.543Z,98191.95
2018-06-23T09:41:37.336Z,98193.94
2018-06-23T09:44:06.588Z,98197.14
2018-06-23T09:46:35.295Z,98196.51
2018-06-23T09:49:03.952Z,98201.33
2018-06-23T09:51:32.792Z,98195.55
2018-06-23T09:54:01.435Z,98204.58
2018-06-23T09:56:30.105Z,98201.42
2018-06-23T09:58:58.735Z,98211.41
2018-06-23T10:01:27.383Z,98211.95
2018-06-23T10:03:56.008Z,98204.76
2018-06-23T10:06:24.664Z,98204.65
2018-06-23T10:08:53.408Z,98204.72
2018-06-23T10:11:22.214Z,98201.54
2018-06-23T10:13:50.815Z,98206.88
2018-06-23T10:16:19.456Z,98212.55
2018-06-23T10:18:48.355Z,98203.59
2018-06-23T10:21:16.872Z,98209.70
2018-06-23T10:23:45.742Z,98217.57
2018-06-23T10:26:14.499Z,98213.13
2018-06-23T10:28:43.687Z,98207.91
2018-06-23T10:31:12.223Z,98214.47
2018-06-23T10:33:40.860Z,98213.50
2018-06-23T10:36:09.539Z,98202.84
2018-06-23T10:38:38.249Z,98202.50
2018-06-23T10:41:06.751Z,98207.20
2018-06-23T10:43:35.355Z,98199.68
2018-06-23T10:46:03.936Z,98207.03
2018-06-23T10:48:32.854Z,98204.30
2018-06-23T10:51:01.508Z,98204.55
2018-06-23T10:53:30.347Z,98211.38
2018-06-23T10:55:59.216Z,98213.11
2018-06-23T10:58:27.887Z,98214.59
2018-06-23T11:00:56.703Z,98211.22
2018-06-23T11:03:25.324Z,98208.27
2018-06-23T11:05:54.382Z,98200.13
2018-06-23T11:08:23.026Z,98192.53
2018-06-23T11:10:51.584Z,98183.13
2018-06-23T11:13:20.240Z,98179.34
2018-06-23T11:15:48.875Z,98172.88
2018-06-23T11:18:17.825Z,98175.88
2018-06-23T11:20:46.511Z,98176.87
2018-06-23T11:23:15.182Z,98177.00
2018-06-23T11:25:43.751Z,98168.39
2018-06-23T11:28:12.376Z,98168.96
2018-06-23T11:30:41.239Z,98160.84
2018-06-23T11:33:09.950Z,98154.03
2018-06-23T11:35:38.577Z,98158.77
2018-06-23T11:38:07.208Z,98154.63
2018-06-23T11:40:35.835Z,98153.05
2018-06-23T11:43:04.682Z,98159.11
2018-06-23T11:45:33.323Z,98161.64
2018-06-23T11:48:01.877Z,98158.66
2018-06-23T11:50:30.446Z,98159.86
2018-06-23T11:52:59.126Z,98151.80
2018-06-23T11:55:28.111Z,98151.25
2018-06-23T11:57:56.737Z,98142.98
2018-06-23T12:00:25.771Z,98138.53
2018-06-23T12:02:54.359Z,98135.39
2018-06-23T12:05:23.020Z,98146.50
2018-06-23T12:07:51.867Z,98141.84
2018-06-23T12:10:20.491Z,98139.50
2018-06-23T12:12:49.131Z,98131.64
2018-06-23T12:15:17.767Z,98133.59
2018-06-23T12:17:46.327Z,98125.80
2018-06-23T12:20:14.989Z,98117.87
2018-06-23T12:22:43.665Z,98117.30
2018-06-23T12:25:12.282Z,98119.32
2018-06-23T12:27:41.205Z,98108.02
2018-06-23T12:30:10.112Z,98103.66
2018-06-23T12:32:38.904Z,98112.00
2018-06-23T12:35:07.761Z,98114.34
2018-06-23T12:37:36.448Z,98105.59
2018-06-23T12:40:05.036Z,98104.34
2018-06-23T12:42:33.589Z,98101.36
2018-06-23T12:45:02.541Z,98105.32
2018-06-23T12:47:31.173Z,98090.00
2018-06-23T12:49:59.759Z,98092.91
2018-06-23T12:52:28.368Z,98082.98
2018-06-23T12:54:56.951Z,98086.41
2018-06-23T12:57:25.863Z,98089.19
2018-06-23T12:59:54.523Z,98079.98
2018-06-23T13:02:23.083Z,98078.48
2018-06-23T13:04:51.888Z,98074.48
2018-06-23T13:07:20.560Z,98074.94
2018-06-23T13:09:49.160Z,98070.39
2018-06-23T13:12:17.747Z,98067.13
2018-06-23T13:14:46.416Z,98068.03
2018-06-23T13:17:15.028Z,98055.84
2018-06-23T13:19:43.676Z,98053.12
2018-06-23T13:22:12.812Z,98060.98
2018-06-23T13:24:41.384Z,98060.06
2018-06-23T13:27:09.952Z,98059.35
2018-06-23T13:29:38.644Z,98061.38
2018-06-23T13:32:07.320Z,98060.56
2018-06-23T13:34:35.927Z,98062.32
2018-06-23T13:37:04.811Z,98052.66
2018-06-23T13:39:33.804Z,98050.02
2018-06-23T13:42:02.406Z,98044.16
2018-06-23T13:44:31.048Z,98046.61
2018-06-23T13:46:59.813Z,98040.14
2018-06-23T13:49:28.548Z,98043.24
2018-06-23T13:51:57.097Z,98037.81
2018-06-23T13:54:25.733Z,98040.24
2018-06-23T13:56:54.603Z,98037.84
2018-06-23T13:59:23.426Z,98034.27
2018-06-23T14:01:52.069Z,98031.81
2018-06-23T14:04:20.648Z,98030.55
2018-06-23T14:06:49.580Z,98031.44
2018-06-23T14:09:18.214Z,98030.18
2018-06-23T14:11:47.276Z,98042.59
2018-06-23T14:14:16.140Z,98041.02
2018-06-23T14:16:44.847Z,98038.82
2018-06-23T14:19:13.491Z,98028.09
2018-06-23T14:21:42.134Z,98029.81
2018-06-23T14:24:10.909Z,98030.98
2018-06-23T14:26:39.596Z,98035.39
2018-06-23T14:29:09.662Z,98031.91
2018-06-23T14:31:38.495Z,98031.48
2018-06-23T14:34:07.115Z,98028.27
2018-06-23T14:36:35.952Z,98026.59
2018-06-23T14:39:07.152Z,98027.44
2018-06-23T14:41:35.764Z,98025.98
2018-06-23T14:44:04.355Z,98026.86
2018-06-23T14:46:34.120Z,98025.41
2018-06-23T14:49:02.739Z,98028.87
2018-06-23T14:51:31.420Z,98027.72
2018-06-23T14:54:00.740Z,98025.95
2018-06-23T14:56:29.536Z,98025.38
2018-06-23T14:58:58.188Z,98023.59
2018-06-23T15:01:26.776Z,98016.05
2018-06-23T15:03:55.371Z,98028.08
2018-06-23T15:06:23.947Z,98015.99
2018-06-23T15:09:04.128Z,98010.20
2018-06-23T15:11:44.081Z,98014.91
2018-06-23T15:14:12.716Z,98009.09
2018-06-23T15:16:41.307Z,98005.14
2018-06-23T15:19:10.019Z,98008.70
2018-06-23T15:21:38.697Z,98006.69
2018-06-23T15:24:07.383Z,97995.95
2018-06-23T15:26:35.935Z,97998.80
2018-06-23T15:29:05.004Z,97995.83
2018-06-23T15:31:33.627Z,97993.14
2018-06-23T15:34:02.520Z,97991.48
2018-06-23T15:36:31.119Z,97983.92
2018-06-23T15:38:59.667Z,97992.31
2018-06-23T15:41:28.407Z,97991.29
2018-06-23T15:43:57.060Z,97991.28
2018-06-23T15:46:25.631Z,97986.21
2018-06-23T15:48:54.664Z,97988.50
2018-06-23T15:51:23.269Z,97993.47
2018-06-23T15:53:51.958Z,97979.85
2018-06-23T15:56:20.804Z,97984.20
2018-06-23T15:58:49.363Z,97979.91
2018-06-23T16:01:18.145Z,97981.99
2018-06-23T16:03:46.735Z,97974.25
2018-06-23T16:06:15.459Z,97978.81
2018-06-23T16:08:44.108Z,97977.88
2018-06-23T16:11:12.895Z,97975.81
2018-06-23T16:13:41.519Z,97971.66
2018-06-23T16:16:10.177Z,97968.95
2018-06-23T16:18:38.788Z,97968.25
2018-06-23T16:21:08.166Z,97970.27
2018-06-23T16:23:36.924Z,97960.17
2018-06-23T16:26:05.615Z,97966.52
2018-06-23T16:28:34.269Z,97963.55
2018-06-23T16:31:03.360Z,97960.29
2018-06-23T16:33:31.991Z,97962.17
2018-06-23T16:36:01.305Z,97950.81
2018-06-23T16:38:29.965Z,97952.27
2018-06-23T16:40:58.582Z,97954.41
2018-06-23T16:43:27.501Z,97953.81
2018-06-23T16:45:56.148Z,97952.75
2018-06-23T16:48:24.696Z,97953.23
2018-06-23T16:50:53.392Z,97947.12
2018-06-23T16:53:21.990Z,97952.06
2018-06-23T16:55:50.688Z,97949.23
2018-06-23T16:58:19.604Z,97950.05
2018-06-23T17:00:48.168Z,97948.66
2018-06-23T17:03:17.372Z,97949.36
2018-06-23T17:05:46.119Z,97947.75
2018-06-23T17:08:14.807Z,97949.36
2018-06-23T17:10:43.679Z,97951.31
2018-06-23T17:13:12.362Z,97951.63
2018-06-23T17:15:41.153Z,97956.09
2018-06-23T17:18:09.759Z,97953.50
2018-06-23T17:20:38.837Z,97954.12
2018-06-23T17:23:08.191Z,97955.64
2018-06-23T17:25:36.813Z,97955.27
2018-06-23T17:28:06.116Z,97953.84
2018-06-23T17:30:34.734Z,97964.97
2018-06-23T17:33:03.339Z,97959.39
2018-06-23T17:35:31.900Z,97961.05
2018-06-23T17:38:00.683Z,97960.41
2018-06-23T17:40:29.304Z,97965.91
2018-06-23T17:42:57.976Z,97966.09
2018-06-23T17:45:27.199Z,97968.53
2018-06-23T17:47:55.915Z,97966.95
2018-06-23T17:50:24.533Z,97969.02
2018-06-23T17:52:53.133Z,97972.80
2018-06-23T17:55:21.836Z,97975.71
2018-06-23T17:57:51.005Z,97963.64
2018-06-23T18:00:20.139Z,97973.11
2018-06-23T18:02:48.727Z,97969.20
2018-06-23T18:05:17.480Z,97973.20
2018-06-23T18:07:46.157Z,97973.81
2018-06-23T18:10:14.911Z,97970.08
2018-06-23T18:12:43.656Z,97967.70
2018-06-23T18:15:12.645Z,97973.37
2018-06-23T18:17:41.372Z,97978.93
2018-06-23T18:20:10.021Z,97982.50
2018-06-23T18:22:38.991Z,97984.66
2018-06-23T18:25:07.563Z,97987.84
2018-06-23T18:27:36.482Z,97982.38
2018-06-23T18:30:05.684Z,97979.30
2018-06-23T18:32:34.559Z,97974.91
2018-06-23T18:35:03.435Z,97986.95
2018-06-23T18:37:32.044Z,97989.30
2018-06-23T18:40:00.665Z,97985.23
2018-06-23T18:42:29.339Z,97984.81
2018-06-23T18:44:57.983Z,97986.70
2018-06-23T18:47:26.853Z,97989.50
2018-06-23T18:49:55.456Z,97990.59
2018-06-23T18:52:24.713Z,97990.48
2018-06-23T18:54:54.221Z,97993.30
2018-06-23T18:57:23.379Z,97989.19
2018-06-23T18:59:52.071Z,97995.69
2018-06-23T19:02:20.919Z,97991.27
2018-06-23T19:04:49.707Z,97985.86
2018-06-23T19:07:18.383Z,97988.56
2018-06-23T19:21:58.051Z,97997.02
2018-06-23T19:24:26.699Z,97997.73
2018-06-23T19:26:55.339Z,97991.86
2018-06-23T19:29:23.951Z,97995.44
2018-06-23T19:31:52.536Z,97998.30
2018-06-23T19:34:21.456Z,98004.34
2018-06-23T19:36:50.098Z,98003.52
2018-06-23T19:39:19.526Z,97999.66
2018-06-23T19:41:48.587Z,98000.11
2018-06-23T19:44:18.938Z,98004.70
2018-06-23T19:46:49.506Z,98006.95
2018-06-23T19:49:18.723Z,98018.01
2018-06-23T19:51:47.410Z,98011.97
2018-06-23T19:54:16.028Z,98009.28
2018-06-23T19:56:46.377Z,98015.06
2018-06-23T19:59:15.076Z,98021.02
2018-06-23T20:01:44.012Z,98011.11
2018-06-23T20:04:12.604Z,98011.22
2018-06-23T20:06:41.245Z,98017.45
2018-06-23T20:09:10.363Z,98015.77
2018-06-23T20:11:39.427Z,98019.54
2018-06-23T20:14:08.852Z,98021.55
2018-06-23T20:16:38.073Z,98016.48
2018-06-23T20:19:06.738Z,98016.31
2018-06-23T20:21:35.451Z,98019.05
2018-06-23T20:26:54.904Z,98014.50
2018-06-23T20:29:23.463Z,98023.04
2018-06-23T20:31:52.216Z,98015.06
2018-06-23T20:34:21.344Z,98022.38
2018-06-23T20:36:49.966Z,98018.14
2018-06-23T20:39:18.834Z,98018.75
2018-06-23T20:41:47.576Z,98020.92
2018-06-23T20:44:16.333Z,98021.27
2018-06-23T20:46:44.947Z,98026.84
2018-06-23T20:49:13.664Z,98024.78
2018-06-23T20:51:43.136Z,98027.16
2018-06-23T20:54:11.735Z,98027.27
2018-06-23T20:56:40.359Z,98029.90
2018-06-23T20:59:09.123Z,98026.82
2018-06-23T21:01:38.254Z,98018.47
2018-06-23T21:04:06.908Z,98017.50
2018-06-23T21:06:35.587Z,98021.73
2018-06-23T21:09:06.736Z,98022.72
2018-06-23T21:11:35.460Z,98024.31
2018-06-23T21:14:04.514Z,98030.76
2018-06-23T21:16:33.359Z,98029.03
2018-06-23T21:19:02.172Z,98027.45
2018-06-23T21:21:31.323Z,98026.34
2018-06-23T21:24:01.655Z,98025.91
2018-06-23T21:26:30.327Z,98021.30
2018-06-23T21:28:58.965Z,98018.25
2018-06-23T21:31:28.304Z,98019.08
2018-06-23T21:33:59.156Z,98017.34
2018-06-23T21:36:27.780Z,98013.60
2018-06-23T21:38:56.928Z,98013.89
2018-06-23T21:41:25.565Z,98017.20
2018-06-23T21:43:54.358Z,98011.02
2018-06-23T21:46:23.096Z,98007.19
2018-06-23T21:48:52.391Z,98011.02
2018-06-23T21:51:21.068Z,98007.67
2018-06-23T21:53:49.729Z,98018.52
2018-06-23T21:56:18.308Z,98016.16
2018-06-23T21:58:46.932Z,98013.59
2018-06-23T22:01:15.598Z,98010.84
2018-06-23T22:03:44.597Z,98010.69
2018-06-23T22:06:13.243Z,98011.03
2018-06-23T22:08:41.919Z,98011.67
2018-06-23T22:11:10.683Z,98006.69
2018-06-23T22:13:39.224Z,97998.17
2018-06-23T22:16:14.008Z,98003.67
2018-06-23T22:18:42.749Z,97999.05
2018-06-23T22:21:11.338Z,98001.92
2018-06-23T22:23:40.032Z,98001.16
2018-06-23T22:26:08.812Z,98005.38
2018-06-23T22:28:37.604Z,98001.10
2018-06-23T22:31:06.618Z,98003.64
2018-06-23T22:33:35.823Z,98009.16
2018-06-23T22:36:04.673Z,98003.16
2018-06-23T22:38:33.259Z,98016.60
2018-06-23T22:41:02.780Z,98005.09
2018-06-23T22:43:31.565Z,98008.78
2018-06-23T22:46:00.276Z,98005.63
2018-06-23T22:48:28.897Z,98006.91
2018-06-23T22:50:57.504Z,98000.57
2018-06-23T22:53:26.239Z,98005.78
2018-06-23T22:55:54.796Z,97997.52
2018-06-23T22:58:23.367Z,98006.61
2018-06-23T23:00:52.112Z,98002.83
2018-06-23T23:03:20.654Z,98010.80
2018-06-23T23:05:49.548Z,98015.77
2018-06-23T23:08:18.151Z,98001.49
2018-06-23T23:10:46.740Z,98004.40
2018-06-23T23:13:15.297Z,98000.95
2018-06-23T23:15:43.827Z,98001.30
2018-06-23T23:18:12.531Z,97999.13
2018-06-23T23:20:41.036Z,97994.11
2018-06-23T23:23:09.680Z,97992.00
2018-06-23T23:25:38.264Z,97991.38
2018-06-23T23:28:06.840Z,97993.12
2018-06-23T23:30:35.442Z,97990.03
2018-06-23T23:33:04.017Z,97990.08
2018-06-23T23:35:32.602Z,97994.45
2018-06-23T23:38:01.165Z,97992.80
2018-06-23T23:40:29.816Z,97985.27
2018-06-23T23:42:58.384Z,97986.53
2018-06-23T23:45:27.083Z,97981.75
2018-06-23T23:47:55.608Z,97981.14
2018-06-23T23:50:24.180Z,97979.00
2018-06-23T23:52:52.764Z,97976.61
2018-06-23T23:55:21.603Z,97976.61
2018-06-23T23:57:50.207Z,97965.20
